createdAt,value
2019-04-20T00:00:52.971Z,100.00
2019-04-20T00:03:44.773Z,100.00
2019-04-20T00:06:27.057Z,100.00
2019-04-20T00:09:21.383Z,100.00
2019-04-20T00:12:08.941Z,100.00
2019-04-20T00:14:52.613Z,100.00
2019-04-20T00:17:50.829Z,100.00
2019-04-20T00:20:31.978Z,100.00
2019-04-20T00:23:40.088Z,100.00
2019-04-20T00:29:52.385Z,100.00
2019-04-20T00:32:23.382Z,100.00
2019-04-20T00:35:06.326Z,100.00
2019-04-20T00:37:54.919Z,100.00
2019-04-20T00:40:39.243Z,100.00
2019-04-20T00:43:29.141Z,100.00
2019-04-20T00:46:19.556Z,100.00
2019-04-20T00:49:01.306Z,100.00
2019-04-20T00:52:17.063Z,100.00
2019-04-20T00:54:30.592Z,100.00
2019-04-20T00:57:30.583Z,100.00
2019-04-20T01:00:21.880Z,100.00
2019-04-20T01:03:14.271Z,100.00
2019-04-20T01:09:18.344Z,100.00
2019-04-20T01:12:03.705Z,100.00
2019-04-20T01:14:57.347Z,100.00
2019-04-20T01:17:37.833Z,100.00
2019-04-20T01:20:28.011Z,100.00
2019-04-20T01:23:22.176Z,100.00
2019-04-20T01:26:07.522Z,100.00
2019-04-20T01:29:06.677Z,100.00
2019-04-20T01:31:52.710Z,100.00
2019-04-20T01:34:42.683Z,100.00
2019-04-20T01:37:26.197Z,100.00
2019-04-20T01:40:07.506Z,100.00
2019-04-20T01:42:51.061Z,100.00
2019-04-20T01:46:07.656Z,100.00
2019-04-20T01:48:44.688Z,100.00
2019-04-20T01:51:47.228Z,100.00
2019-04-20T01:54:31.210Z,100.00
2019-04-20T01:57:38.594Z,100.00
2019-04-20T02:00:37.336Z,100.00
2019-04-20T02:03:44.834Z,100.00
2019-04-20T02:06:39.933Z,100.00
2019-04-20T02:09:26.409Z,100.00
2019-04-20T02:12:12.152Z,100.00
2019-04-20T02:15:02.758Z,100.00
2019-04-20T02:17:51.912Z,100.00
2019-04-20T02:20:56.751Z,100.00
2019-04-20T02:23:31.799Z,100.00
2019-04-20T02:26:11.113Z,100.00
2019-04-20T02:29:18.150Z,100.00
2019-04-20T02:32:23.380Z,100.00
2019-04-20T02:38:54.630Z,100.00
2019-04-20T02:41:19.140Z,100.00
2019-04-20T02:44:17.912Z,100.00
2019-04-20T02:46:55.965Z,100.00
2019-04-20T02:49:51.443Z,100.00
2019-04-20T03:01:03.866Z,100.00
2019-04-20T03:03:33.987Z,100.00
2019-04-20T03:06:26.712Z,100.00
2019-04-20T03:10:09.451Z,100.00
2019-04-20T03:12:50.337Z,100.00
2019-04-20T03:16:01.914Z,100.00
2019-04-20T03:18:44.610Z,100.00
2019-04-20T03:21:41.895Z,100.00
2019-04-20T03:24:29.540Z,100.00
2019-04-20T03:27:19.702Z,100.00
2019-04-20T03:33:23.124Z,100.00
2019-04-20T03:36:10.313Z,100.00
2019-04-20T03:38:41.447Z,100.00
2019-04-20T03:41:24.478Z,100.00
2019-04-20T03:44:04.127Z,100.00
2019-04-20T03:46:57.250Z,100.00
2019-04-20T03:50:10.770Z,100.00
2019-04-20T03:55:56.698Z,100.00
2019-04-20T03:58:47.361Z,100.00
2019-04-20T04:02:14.930Z,100.00
2019-04-20T04:05:03.303Z,100.00
2019-04-20T04:07:39.802Z,100.00
2019-04-20T04:10:28.036Z,100.00
2019-04-20T04:13:27.031Z,100.00
2019-04-20T04:16:14.713Z,100.00
2019-04-20T04:19:12.625Z,100.00
2019-04-20T04:22:01.645Z,100.00
2019-04-20T04:24:54.230Z,100.00
2019-04-20T04:27:40.591Z,100.00
2019-04-20T04:30:26.355Z,100.00
2019-04-20T04:33:39.940Z,100.00
2019-04-20T04:36:05.830Z,100.00
2019-04-20T04:38:59.832Z,100.00
2019-04-20T04:41:39.907Z,100.00
2019-04-20T04:44:26.606Z,100.00
2019-04-20T04:47:02.661Z,100.00
2019-04-20T04:49:57.867Z,100.00
2019-04-20T04:52:48.119Z,100.00
2019-04-20T04:55:35.269Z,100.00
2019-04-20T04:58:17.289Z,100.00
2019-04-20T05:01:05.527Z,100.00
2019-04-20T05:04:33.275Z,100.00
2019-04-20T05:07:07.252Z,100.00
2019-04-20T05:09:48.696Z,100.00
2019-04-20T05:12:35.443Z,100.00
2019-04-20T05:15:37.624Z,100.00
2019-04-20T05:18:34.784Z,100.00
2019-04-20T05:21:30.226Z,100.00
2019-04-20T05:24:59.642Z,100.00
2019-04-20T05:27:51.238Z,90.53
2019-04-20T05:30:16.027Z,76.23
2019-04-20T05:33:08.254Z,68.47
2019-04-20T05:36:09.979Z,60.06
2019-04-20T05:39:11.614Z,55.90
2019-04-20T05:41:42.522Z,49.63
2019-04-20T05:47:40.065Z,64.61
2019-04-20T05:50:32.863Z,68.45
2019-04-20T05:53:24.567Z,72.23
2019-04-20T05:56:07.285Z,70.45
2019-04-20T05:58:58.048Z,67.02
2019-04-20T06:01:53.290Z,62.92
2019-04-20T06:04:46.293Z,67.32
2019-04-20T06:07:27.103Z,63.35
2019-04-20T06:10:16.864Z,64.08
2019-04-20T06:16:07.637Z,56.07
2019-04-20T06:22:19.265Z,54.41
2019-04-20T06:28:06.595Z,73.04
2019-04-20T06:30:52.134Z,70.28
2019-04-20T06:34:27.603Z,76.19
2019-04-20T06:40:38.728Z,84.21
2019-04-20T06:43:07.859Z,77.55
2019-04-20T06:46:04.459Z,72.51
2019-04-20T06:48:45.893Z,70.23
2019-04-20T06:54:53.764Z,68.10
2019-04-20T07:00:42.227Z,63.37
2019-04-20T07:03:40.296Z,61.24
2019-04-20T07:06:34.296Z,64.00
2019-04-20T07:09:12.795Z,66.86
2019-04-20T07:11:50.381Z,66.84
2019-04-20T07:14:34.550Z,63.33
2019-04-20T07:23:37.117Z,63.04
2019-04-20T07:26:24.385Z,59.00
2019-04-20T07:29:21.029Z,57.87
2019-04-20T07:32:07.607Z,59.67
2019-04-20T07:34:58.584Z,60.94
2019-04-20T07:38:25.586Z,71.65
2019-04-20T07:40:50.671Z,60.77
2019-04-20T07:43:57.100Z,66.54
2019-04-20T07:46:41.234Z,72.64
2019-04-20T07:49:19.259Z,69.96
2019-04-20T07:51:44.364Z,75.93
2019-04-20T07:55:12.452Z,75.88
2019-04-20T07:57:35.056Z,77.02
2019-04-20T08:00:27.549Z,80.94
2019-04-20T08:06:23.271Z,92.65
2019-04-20T08:12:55.607Z,97.18
2019-04-20T08:15:42.901Z,91.56
2019-04-20T08:18:27.607Z,94.69
2019-04-20T08:21:09.884Z,91.39
2019-04-20T08:23:59.529Z,91.18
2019-04-20T08:26:31.076Z,97.11
2019-04-20T08:29:50.135Z,95.59
2019-04-20T08:32:54.213Z,95.87
2019-04-20T08:35:52.578Z,89.55
2019-04-20T08:41:16.962Z,84.40
2019-04-20T08:44:21.083Z,77.50
2019-04-20T08:47:05.180Z,70.49
2019-04-20T08:49:47.451Z,75.74
2019-04-20T08:52:55.517Z,69.91
2019-04-20T08:55:15.881Z,68.25
2019-04-20T09:01:04.957Z,68.08
2019-04-20T09:04:03.512Z,68.21
2019-04-20T09:06:50.638Z,70.02
2019-04-20T09:09:58.185Z,71.98
2019-04-20T09:12:35.533Z,67.41
2019-04-20T09:15:05.979Z,66.01
2019-04-20T09:21:07.687Z,68.47
2019-04-20T09:24:04.537Z,69.31
2019-04-20T09:26:47.502Z,67.54
2019-04-20T09:29:33.416Z,68.23
2019-04-20T09:35:34.080Z,66.76
2019-04-20T09:38:15.615Z,63.28
2019-04-20T09:41:03.681Z,59.91
2019-04-20T09:43:58.313Z,62.93
2019-04-20T09:46:50.071Z,53.64
2019-04-20T09:49:45.521Z,57.55
2019-04-20T09:52:32.189Z,55.98
2019-04-20T09:55:44.862Z,57.87
2019-04-20T09:58:28.102Z,57.16
2019-04-20T10:01:21.427Z,56.65
2019-04-20T10:03:54.721Z,54.81
2019-04-20T10:06:45.559Z,60.70
2019-04-20T10:09:35.766Z,59.93
2019-04-20T10:12:13.477Z,65.32
2019-04-20T10:15:12.415Z,57.64
2019-04-20T10:17:47.794Z,53.39
2019-04-20T10:20:38.878Z,57.97
2019-04-20T10:23:22.732Z,61.75
2019-04-20T10:26:14.280Z,58.48
2019-04-20T10:28:57.576Z,61.66
2019-04-20T10:31:54.672Z,65.25
2019-04-20T10:41:16.646Z,61.82
2019-04-20T10:43:53.406Z,57.76
2019-04-20T10:46:44.964Z,62.34
2019-04-20T10:49:29.129Z,56.33
2019-04-20T10:52:19.976Z,50.64
2019-04-20T10:55:04.245Z,48.08
2019-04-20T11:00:39.822Z,60.13
2019-04-20T11:06:32.652Z,53.52
2019-04-20T11:09:23.058Z,53.07
2019-04-20T11:12:06.421Z,46.75
2019-04-20T11:14:56.731Z,49.09
2019-04-20T11:17:40.078Z,47.30
2019-04-20T11:20:31.695Z,49.40
2019-04-20T11:23:18.149Z,45.49
2019-04-20T11:26:08.681Z,46.93
2019-04-20T11:31:54.018Z,49.53
2019-04-20T11:34:43.650Z,52.49
2019-04-20T11:37:29.048Z,50.94
2019-04-20T11:40:19.527Z,50.70
2019-04-20T11:43:03.882Z,47.31
2019-04-20T11:45:54.549Z,50.53
2019-04-20T11:48:47.382Z,46.65
2019-04-20T11:51:31.783Z,44.11
2019-04-20T11:54:22.202Z,43.62
2019-04-20T11:57:13.306Z,47.68
2019-04-20T11:59:59.119Z,41.75
2019-04-20T12:03:16.110Z,39.53
2019-04-20T12:05:57.440Z,40.52
2019-04-20T12:08:46.985Z,40.38
2019-04-20T12:11:37.144Z,38.78
2019-04-20T12:14:22.912Z,37.49
2019-04-20T12:17:07.931Z,37.22
2019-04-20T12:19:59.868Z,37.94
2019-04-20T12:22:44.502Z,38.93
2019-04-20T12:25:32.545Z,38.52
2019-04-20T12:28:21.961Z,34.61
2019-04-20T12:31:11.994Z,35.87
2019-04-20T12:34:18.162Z,34.79
2019-04-20T12:37:01.384Z,36.65
2019-04-20T12:39:53.206Z,35.44
2019-04-20T12:42:37.054Z,34.42
2019-04-20T12:48:45.008Z,34.90
2019-04-20T12:51:43.679Z,34.58
2019-04-20T12:54:20.749Z,32.80
2019-04-20T12:57:11.119Z,32.59
2019-04-20T13:00:01.696Z,31.64
2019-04-20T13:02:47.391Z,31.52
2019-04-20T13:05:38.127Z,33.85
2019-04-20T13:08:28.572Z,32.38
2019-04-20T13:11:44.117Z,35.64
2019-04-20T13:17:51.090Z,33.93
2019-04-20T13:23:29.007Z,32.53
2019-04-20T13:26:19.479Z,33.23
2019-04-20T13:29:04.749Z,31.62
2019-04-20T13:31:56.784Z,32.02
2019-04-20T13:34:40.367Z,31.45
2019-04-20T13:37:31.833Z,30.84
2019-04-20T13:40:17.661Z,29.65
2019-04-20T13:43:08.198Z,31.78
2019-04-20T13:45:53.061Z,31.24
2019-04-20T13:48:44.747Z,28.40
2019-04-20T13:51:30.835Z,30.25
2019-04-20T13:54:24.892Z,30.35
2019-04-20T14:06:09.134Z,30.55
2019-04-20T14:08:53.680Z,29.92
2019-04-20T14:11:36.833Z,31.89
2019-04-20T14:14:27.117Z,29.69
2019-04-20T14:17:17.591Z,28.99
2019-04-20T14:20:13.352Z,30.85
2019-04-20T14:22:54.714Z,29.55
2019-04-20T14:25:38.750Z,28.41
2019-04-20T14:28:29.193Z,28.64
2019-04-20T14:31:19.631Z,29.68
2019-04-20T14:34:10.960Z,29.38
2019-04-20T14:36:57.125Z,31.95
2019-04-20T14:39:40.544Z,30.33
2019-04-20T14:42:40.723Z,30.53
2019-04-20T14:45:16.540Z,30.77
2019-04-20T14:48:07.949Z,28.93
2019-04-20T14:50:59.355Z,31.01
2019-04-20T14:53:51.574Z,30.60
2019-04-20T14:56:35.847Z,28.78
2019-04-20T15:02:30.158Z,29.19
2019-04-20T15:05:14.964Z,28.92
2019-04-20T15:08:06.890Z,29.92
2019-04-20T15:10:56.705Z,29.59
2019-04-20T15:13:48.931Z,29.92
2019-04-20T15:16:32.804Z,29.71
2019-04-20T15:19:43.265Z,28.96
2019-04-20T15:22:31.718Z,28.34
2019-04-20T15:25:23.396Z,29.09
2019-04-20T15:28:10.419Z,31.29
2019-04-20T15:31:00.805Z,31.10
2019-04-20T15:33:43.736Z,31.72
2019-04-20T15:36:34.136Z,30.41
2019-04-20T15:39:18.941Z,30.83
2019-04-20T15:42:09.637Z,31.44
2019-04-20T15:44:55.644Z,30.50
2019-04-20T15:47:46.032Z,29.23
2019-04-20T15:50:38.079Z,29.79
2019-04-20T15:53:21.940Z,30.43
2019-04-20T15:56:29.096Z,30.70
2019-04-20T15:59:14.550Z,29.67
2019-04-20T16:02:25.149Z,31.15
2019-04-20T16:08:26.058Z,31.58
2019-04-20T16:11:11.076Z,31.15
2019-04-20T16:14:03.471Z,30.99
2019-04-20T16:16:46.573Z,32.19
2019-04-20T16:19:40.695Z,32.06
2019-04-20T16:28:37.617Z,31.93
2019-04-20T16:31:20.741Z,33.28
2019-04-20T16:34:11.717Z,32.36
2019-04-20T16:37:04.326Z,33.03
2019-04-20T16:39:48.329Z,34.25
2019-04-20T16:42:52.132Z,33.05
2019-04-20T16:45:35.139Z,33.74
2019-04-20T16:48:26.305Z,33.55
2019-04-20T16:51:11.019Z,32.77
2019-04-20T16:54:01.621Z,33.10
2019-04-20T16:56:46.624Z,33.56
2019-04-20T16:59:42.377Z,33.50
2019-04-20T17:02:12.834Z,34.41
2019-04-20T17:05:03.038Z,33.62
2019-04-20T17:07:48.953Z,33.59
2019-04-20T17:10:39.374Z,34.13
2019-04-20T17:13:34.156Z,33.70
2019-04-20T17:16:15.487Z,34.17
2019-04-20T17:18:59.644Z,35.64
2019-04-20T17:21:50.805Z,35.11
2019-04-20T17:24:37.585Z,36.00
2019-04-20T17:27:46.910Z,35.58
2019-04-20T17:30:50.871Z,36.00
2019-04-20T17:33:55.129Z,36.37
2019-04-20T17:36:31.763Z,35.88
2019-04-20T17:42:37.487Z,36.84
2019-04-20T17:48:31.524Z,37.63
2019-04-20T17:51:29.100Z,37.60
2019-04-20T17:54:17.718Z,37.09
2019-04-20T18:03:19.591Z,37.83
2019-04-20T18:06:17.281Z,38.07
2019-04-20T18:09:00.277Z,38.35
2019-04-20T18:11:42.670Z,38.19
2019-04-20T18:14:41.931Z,38.92
2019-04-20T18:17:53.525Z,39.34
2019-04-20T18:23:43.259Z,40.11
2019-04-20T18:26:45.427Z,40.76
2019-04-20T18:29:52.793Z,41.26
2019-04-20T18:35:28.884Z,42.50
2019-04-20T18:38:20.181Z,43.29
2019-04-20T18:41:08.883Z,43.85
2019-04-20T18:43:58.999Z,43.98
2019-04-20T18:47:09.512Z,44.76
2019-04-20T18:49:48.684Z,45.88
2019-04-20T18:52:19.712Z,45.73
2019-04-20T18:58:07.055Z,46.60
2019-04-20T19:00:58.982Z,46.75
2019-04-20T19:03:50.960Z,45.89
2019-04-20T19:06:34.231Z,45.63
2019-04-20T19:09:28.511Z,45.83
2019-04-20T19:12:12.704Z,45.59
2019-04-20T19:15:39.461Z,44.67
2019-04-20T19:18:42.423Z,44.91
2019-04-20T19:24:16.912Z,44.78
2019-04-20T19:27:08.860Z,45.35
2019-04-20T19:29:58.959Z,44.41
2019-04-20T19:32:49.948Z,44.89
2019-04-20T19:35:40.609Z,44.04
2019-04-20T19:38:17.621Z,43.60
2019-04-20T19:41:20.427Z,42.85
2019-04-20T19:46:58.629Z,41.33
2019-04-20T19:49:43.537Z,40.87
2019-04-20T19:52:49.301Z,41.06
2019-04-20T19:55:16.129Z,40.19
2019-04-20T19:58:02.528Z,40.04
2019-04-20T20:00:59.573Z,40.70
2019-04-20T20:03:43.762Z,40.55
2019-04-20T20:06:41.357Z,40.25
2019-04-20T20:09:20.005Z,40.42
2019-04-20T20:12:14.487Z,40.60
2019-04-20T20:14:55.348Z,40.26
2019-04-20T20:18:06.065Z,40.49
2019-04-20T20:20:47.324Z,40.30
2019-04-20T20:23:21.408Z,40.27
2019-04-20T20:26:20.691Z,40.92
2019-04-20T20:29:09.238Z,40.97
2019-04-20T20:32:03.374Z,41.39
2019-04-20T20:34:41.769Z,40.86
2019-04-20T20:37:27.275Z,40.66
2019-04-20T20:40:21.109Z,40.08
2019-04-20T20:43:09.651Z,40.42
2019-04-20T20:49:15.284Z,40.13
2019-04-20T20:52:02.489Z,40.57
2019-04-20T20:54:34.735Z,41.44
2019-04-20T20:57:20.004Z,41.05
2019-04-20T21:00:07.667Z,41.20
2019-04-20T21:02:59.293Z,41.16
2019-04-20T21:05:37.639Z,42.37
2019-04-20T21:08:29.304Z,44.17
2019-04-20T21:11:21.598Z,45.12
2019-04-20T21:14:06.830Z,47.52
2019-04-20T21:20:05.382Z,48.91
2019-04-20T21:28:26.919Z,48.33
2019-04-20T21:31:18.553Z,48.25
2019-04-20T21:34:01.881Z,48.92
2019-04-20T21:36:45.299Z,50.08
2019-04-20T21:39:30.123Z,50.48
2019-04-20T21:42:09.194Z,49.73
2019-04-20T21:45:05.590Z,50.58
2019-04-20T21:47:39.958Z,51.94
2019-04-20T21:50:45.327Z,52.95
2019-04-20T21:53:22.925Z,54.62
2019-04-20T21:56:10.366Z,56.18
2019-04-20T21:58:58.582Z,58.21
2019-04-20T22:01:55.973Z,59.00
2019-04-20T22:04:29.295Z,60.65
2019-04-20T22:07:38.625Z,60.31
2019-04-20T22:10:27.542Z,62.50
2019-04-20T22:16:05.237Z,65.61
2019-04-20T22:18:51.811Z,63.98
2019-04-20T22:21:50.132Z,63.23
2019-04-20T22:24:42.484Z,61.90
2019-04-20T22:27:20.436Z,60.30
2019-04-20T22:30:26.448Z,60.86
2019-04-20T22:36:10.830Z,59.25
2019-04-20T22:39:23.500Z,59.35
2019-04-20T22:42:08.944Z,59.71
2019-04-20T22:45:01.919Z,59.69
2019-04-20T22:47:40.811Z,59.16
2019-04-20T22:50:43.804Z,59.01
2019-04-20T22:53:29.856Z,58.71
2019-04-20T22:56:24.319Z,58.35
2019-04-20T22:59:01.062Z,61.39
2019-04-20T23:01:48.480Z,60.45
2019-04-20T23:04:34.855Z,60.25
2019-04-20T23:07:20.945Z,60.85
2019-04-20T23:10:05.034Z,63.13
2019-04-20T23:12:59.181Z,64.01
2019-04-20T23:15:42.418Z,63.39
2019-04-20T23:18:26.504Z,61.71
2019-04-20T23:21:17.611Z,60.53
2019-04-20T23:24:10.106Z,58.78
2019-04-20T23:26:53.160Z,60.45
2019-04-20T23:29:58.351Z,62.08
2019-04-20T23:32:46.297Z,60.89
2019-04-20T23:35:42.510Z,62.28
2019-04-20T23:38:24.604Z,62.47
2019-04-20T23:41:08.006Z,62.44
2019-04-20T23:44:19.016Z,63.03
2019-04-20T23:50:13.657Z,65.49
2019-04-20T23:52:49.128Z,66.08
2019-04-20T23:55:05.966Z,65.76
2019-04-20T23:57:59.487Z,66.52
